createdAt,value
2018-06-04T00:01:28.288Z,24.72
2018-06-04T00:03:59.686Z,24.44
2018-06-04T00:06:30.261Z,23.95
2018-06-04T00:09:01.655Z,23.62
2018-06-04T00:11:32.394Z,24.98
2018-06-04T00:14:03.638Z,24.00
2018-06-04T00:16:34.387Z,24.10
2018-06-04T00:19:05.422Z,23.00
2018-06-04T00:21:36.614Z,24.40
2018-06-04T00:24:07.318Z,23.10
2018-06-04T00:26:38.588Z,23.98
2018-06-04T00:29:09.709Z,24.87
2018-06-04T00:31:40.882Z,24.12
2018-06-04T00:34:11.414Z,23.02
2018-06-04T00:36:42.261Z,22.95
2018-06-04T00:39:13.670Z,22.94
2018-06-04T00:41:44.254Z,23.00
2018-06-04T00:44:15.660Z,24.86
2018-06-04T00:46:50.967Z,25.17
2018-06-04T00:49:20.866Z,25.23
2018-06-04T00:51:50.630Z,24.33
2018-06-04T00:54:20.447Z,24.60
2018-06-04T00:56:50.270Z,25.80
2018-06-04T00:59:21.930Z,24.96
2018-06-04T01:01:52.357Z,25.25
2018-06-04T01:04:23.609Z,25.34
2018-06-04T01:06:54.319Z,25.92
2018-06-04T01:09:25.665Z,25.50
2018-06-04T01:11:56.353Z,25.00
2018-06-04T01:14:27.657Z,25.30
2018-06-04T01:16:58.678Z,24.63
2018-06-04T01:19:29.374Z,26.07
2018-06-04T01:21:59.570Z,25.77
2018-06-04T01:24:30.305Z,26.15
2018-06-04T01:27:00.651Z,26.18
2018-06-04T01:29:31.390Z,25.80
2018-06-04T01:32:01.876Z,24.18
2018-06-04T01:34:32.598Z,26.17
2018-06-04T01:37:03.272Z,24.77
2018-06-04T01:39:34.638Z,24.30
2018-06-04T01:42:05.386Z,25.80
2018-06-04T01:44:36.651Z,25.84
2018-06-04T01:47:07.362Z,26.07
2018-06-04T01:49:38.617Z,24.94
2018-06-04T01:52:09.297Z,25.85
2018-06-04T01:54:40.714Z,25.60
2018-06-04T01:57:11.325Z,24.02
2018-06-04T01:59:42.694Z,26.12
2018-06-04T02:02:13.307Z,25.90
2018-06-04T02:04:44.767Z,25.04
2018-06-04T02:07:15.310Z,24.32
2018-06-04T02:09:46.616Z,25.28
2018-06-04T02:12:17.274Z,24.60
2018-06-04T02:14:48.671Z,25.08
2018-06-04T02:17:18.424Z,24.33
2018-06-04T02:19:49.701Z,23.66
2018-06-04T02:22:20.315Z,23.92
2018-06-04T02:24:51.618Z,23.60
2018-06-04T02:27:22.350Z,24.07
2018-06-04T02:29:53.630Z,25.56
2018-06-04T02:32:23.381Z,24.40
2018-06-04T02:34:53.320Z,24.90
2018-06-04T02:37:24.754Z,26.74
2018-06-04T02:39:55.350Z,25.77
2018-06-04T02:42:27.018Z,26.34
2018-06-04T02:44:57.508Z,24.07
2018-06-04T02:47:28.343Z,25.32
2018-06-04T02:49:59.690Z,26.52
2018-06-04T02:52:30.338Z,27.07
2018-06-04T02:55:01.676Z,26.18
2018-06-04T02:57:32.271Z,26.27
2018-06-04T03:00:03.674Z,25.64
2018-06-04T03:02:34.494Z,26.48
2018-06-04T03:05:05.515Z,26.57
2018-06-04T03:07:36.279Z,25.50
2018-06-04T03:10:07.659Z,25.54
2018-06-04T03:12:38.338Z,25.12
2018-06-04T03:15:09.700Z,20.08
2018-06-04T03:17:40.362Z,24.15
2018-06-04T03:20:11.634Z,25.12
2018-06-04T03:22:42.364Z,25.75
2018-06-04T03:25:13.603Z,25.86
2018-06-04T03:27:44.294Z,24.37
2018-06-04T03:30:15.567Z,24.10
2018-06-04T03:32:45.388Z,25.13
2018-06-04T03:35:16.658Z,26.06
2018-06-04T03:37:47.322Z,24.30
2018-06-04T03:40:18.706Z,24.94
2018-06-04T03:42:49.389Z,24.37
2018-06-04T03:45:20.950Z,25.38
2018-06-04T03:47:51.569Z,25.43
2018-06-04T03:50:22.352Z,24.90
2018-06-04T03:52:57.638Z,24.30
2018-06-04T03:55:28.010Z,25.37
2018-06-04T03:57:57.803Z,24.45
2018-06-04T04:00:28.239Z,25.07
2018-06-04T04:02:58.157Z,26.83
2018-06-04T04:05:28.786Z,26.07
2018-06-04T04:07:58.591Z,27.97
2018-06-04T04:10:29.325Z,25.68
2018-06-04T04:13:00.624Z,25.86
2018-06-04T04:15:31.303Z,24.87
2018-06-04T04:18:01.779Z,26.20
2018-06-04T04:20:32.414Z,26.40
2018-06-04T04:23:03.630Z,25.32
2018-06-04T04:25:34.406Z,25.62
2018-06-04T04:28:05.372Z,26.35
2018-06-04T04:30:36.688Z,27.22
2018-06-04T04:33:07.394Z,26.52
2018-06-04T04:35:38.708Z,28.32
2018-06-04T04:38:09.261Z,27.32
2018-06-04T04:40:40.668Z,27.12
2018-06-04T04:43:11.358Z,27.10
2018-06-04T04:45:42.646Z,28.42
2018-06-04T04:48:13.369Z,28.90
2018-06-04T04:50:44.611Z,28.10
2018-06-04T04:53:15.449Z,29.35
2018-06-04T04:55:46.374Z,27.07
2018-06-04T04:58:16.241Z,29.00
2018-06-04T05:00:47.762Z,27.70
2018-06-04T05:03:18.273Z,27.27
2018-06-04T05:05:49.694Z,27.02
2018-06-04T05:08:20.246Z,28.10
2018-06-04T05:10:51.658Z,27.88
2018-06-04T05:13:22.375Z,27.10
2018-06-04T05:15:53.693Z,28.58
2018-06-04T05:18:24.335Z,26.80
2018-06-04T05:20:55.605Z,28.24
2018-06-04T05:23:26.323Z,25.88
2018-06-04T05:25:57.602Z,27.30
2018-06-04T05:28:28.265Z,26.75
2018-06-04T05:30:59.706Z,25.66
2018-06-04T05:33:30.246Z,25.62
2018-06-04T05:36:01.707Z,24.80
2018-06-04T05:38:32.276Z,24.18
2018-06-04T05:41:03.715Z,24.32
2018-06-04T05:43:34.289Z,24.82
2018-06-04T05:46:05.748Z,21.58
2018-06-04T05:48:36.298Z,24.43
2018-06-04T05:51:07.743Z,22.66
2018-06-04T05:53:38.385Z,23.35
2018-06-04T05:56:08.353Z,21.70
2018-06-04T05:58:39.712Z,22.50
2018-06-04T06:01:10.526Z,22.10
2018-06-04T06:03:41.418Z,20.70
2018-06-04T06:06:12.724Z,19.80
2018-06-04T06:08:43.865Z,19.73
2018-06-04T06:11:14.513Z,20.80
2018-06-04T06:13:45.406Z,19.07
2018-06-04T06:16:15.374Z,18.20
2018-06-04T06:18:46.674Z,20.00
2018-06-04T06:21:17.477Z,18.90
2018-06-04T06:23:48.737Z,18.12
2018-06-04T06:26:19.621Z,19.07
2018-06-04T06:28:54.953Z,19.02
2018-06-04T06:31:24.811Z,16.20
2018-06-04T06:33:55.113Z,16.05
2018-06-04T06:36:24.946Z,16.48
2018-06-04T06:38:55.286Z,15.70
2018-06-04T06:41:25.112Z,15.27
2018-06-04T06:43:55.646Z,15.50
2018-06-04T06:46:26.351Z,14.85
2018-06-04T06:48:57.649Z,14.90
2018-06-04T06:51:28.410Z,14.40
2018-06-04T06:53:59.648Z,15.36
2018-06-04T06:56:30.313Z,16.15
2018-06-04T06:59:01.689Z,15.62
2018-06-04T07:01:31.564Z,15.50
2018-06-04T07:04:02.383Z,16.00
2018-06-04T07:06:33.748Z,14.82
2018-06-04T07:09:04.738Z,14.10
2018-06-04T07:11:35.473Z,12.60
2018-06-04T07:14:06.581Z,12.60
2018-06-04T07:16:37.317Z,12.68
2018-06-04T07:19:08.665Z,10.64
2018-06-04T07:21:39.343Z,11.55
2018-06-04T07:24:10.609Z,11.66
2018-06-04T07:26:41.391Z,11.60
2018-06-04T07:29:12.286Z,12.47
2018-06-04T07:31:51.934Z,13.00
2018-06-04T07:34:21.849Z,11.17
2018-06-04T07:36:51.677Z,11.55
2018-06-04T07:39:22.042Z,12.35
2018-06-04T07:41:51.934Z,11.50
2018-06-04T07:44:21.844Z,10.87
2018-06-04T07:46:51.837Z,10.13
2018-06-04T07:49:21.582Z,10.63
2018-06-04T07:51:51.363Z,9.70
2018-06-04T07:54:21.561Z,9.67
2018-06-04T07:56:52.343Z,11.05
2018-06-04T07:59:23.663Z,10.14
2018-06-04T08:01:54.379Z,9.88
2018-06-04T08:04:25.620Z,9.46
2018-06-04T08:06:56.387Z,8.70
2018-06-04T08:09:27.244Z,9.88
2018-06-04T08:11:58.690Z,10.20
2018-06-04T08:14:29.526Z,10.70
2018-06-04T08:17:00.345Z,8.80
2018-06-04T08:19:31.642Z,8.80
2018-06-04T08:22:02.365Z,8.10
2018-06-04T08:24:33.698Z,8.74
2018-06-04T08:27:04.322Z,8.73
2018-06-04T08:29:35.626Z,8.64
2018-06-04T08:32:06.103Z,9.12
2018-06-04T08:34:36.545Z,8.78
2018-06-04T08:37:07.381Z,8.88
2018-06-04T08:39:38.238Z,7.90
2018-06-04T08:42:09.645Z,8.84
2018-06-04T08:44:40.234Z,7.45
2018-06-04T08:47:11.629Z,6.52
2018-06-04T08:49:42.332Z,7.05
2018-06-04T08:52:12.262Z,7.55
2018-06-04T08:54:43.599Z,7.22
2018-06-04T08:57:14.303Z,7.12
2018-06-04T08:59:45.610Z,5.72
2018-06-04T09:02:16.358Z,5.72
2018-06-04T09:04:53.578Z,5.98
2018-06-04T09:07:23.373Z,6.03
2018-06-04T09:09:53.131Z,6.13
2018-06-04T09:12:23.378Z,5.18
2018-06-04T09:14:53.126Z,5.63
2018-06-04T09:17:23.198Z,6.07
2018-06-04T09:19:53.530Z,6.48
2018-06-04T09:22:24.673Z,6.42
2018-06-04T09:24:55.305Z,5.62
2018-06-04T09:27:26.561Z,5.58
2018-06-04T09:29:57.293Z,6.42
2018-06-04T09:32:28.554Z,5.70
2018-06-04T09:34:59.266Z,6.20
2018-06-04T09:37:30.634Z,6.30
2018-06-04T09:40:01.418Z,6.55
2018-06-04T09:42:32.437Z,6.12
2018-06-04T09:45:03.557Z,6.22
2018-06-04T09:47:34.403Z,5.83
2018-06-04T09:50:05.298Z,5.95
2018-06-04T09:52:35.517Z,5.43
2018-06-04T09:55:06.302Z,6.40
2018-06-04T09:57:37.796Z,6.20
2018-06-04T10:00:08.421Z,5.28
2018-06-04T10:02:39.254Z,5.40
2018-06-04T10:05:10.558Z,4.96
2018-06-04T10:07:41.347Z,5.33
2018-06-04T10:10:12.562Z,5.30
2018-06-04T10:12:43.375Z,5.37
2018-06-04T10:15:14.235Z,5.28
2018-06-04T10:17:45.937Z,5.00
2018-06-04T10:20:16.297Z,5.17
2018-06-04T10:22:47.591Z,5.08
2018-06-04T10:25:18.312Z,5.15
2018-06-04T10:27:49.607Z,4.66
2018-06-04T10:30:20.665Z,4.40
2018-06-04T10:32:50.444Z,4.87
2018-06-04T10:35:21.255Z,4.40
2018-06-04T10:37:52.750Z,4.22
2018-06-04T10:40:23.250Z,4.00
2018-06-04T10:42:54.701Z,4.56
2018-06-04T10:45:25.241Z,3.92
2018-06-04T10:47:56.657Z,4.32
2018-06-04T10:50:27.213Z,4.50
2018-06-04T10:52:58.652Z,3.98
2018-06-04T10:55:29.317Z,4.05
2018-06-04T10:58:00.326Z,4.08
2018-06-04T11:00:31.204Z,4.12
2018-06-04T11:03:02.582Z,3.84
2018-06-04T11:05:33.269Z,3.75
2018-06-04T11:08:04.663Z,3.76
2018-06-04T11:10:34.394Z,3.93
2018-06-04T11:13:05.341Z,3.70
2018-06-04T11:15:36.242Z,3.98
2018-06-04T11:18:08.038Z,3.66
2018-06-04T11:20:38.749Z,3.67
2018-06-04T11:23:09.334Z,3.70
2018-06-04T11:25:39.689Z,4.16
2018-06-04T11:28:10.322Z,3.47
2018-06-04T11:30:41.663Z,3.80
2018-06-04T11:33:12.256Z,4.05
2018-06-04T11:35:43.568Z,3.90
2018-06-04T11:38:14.345Z,4.30
2018-06-04T11:40:45.281Z,4.08
2018-06-04T11:43:17.050Z,3.80
2018-06-04T11:45:47.453Z,4.20
2018-06-04T11:48:18.452Z,3.80
2018-06-04T11:50:49.346Z,4.17
2018-06-04T11:53:20.677Z,4.16
2018-06-04T11:55:51.406Z,3.52
2018-06-04T11:58:22.434Z,3.72
2018-06-04T12:00:54.375Z,3.67
2018-06-04T12:04:27.346Z,3.80
2018-06-04T12:06:57.227Z,3.50
2018-06-04T12:09:26.965Z,3.60
2018-06-04T12:11:56.959Z,3.73
2018-06-04T12:14:26.928Z,3.70
2018-06-04T12:16:57.543Z,3.40
2018-06-04T12:19:27.399Z,3.83
2018-06-04T12:21:57.665Z,4.20
2018-06-04T12:24:27.764Z,3.50
2018-06-04T12:26:57.908Z,3.27
2018-06-04T12:29:27.874Z,3.77
2018-06-04T12:31:57.991Z,3.20
2018-06-04T12:34:28.119Z,3.73
2018-06-04T12:36:57.983Z,3.13
2018-06-04T12:39:27.838Z,3.10
2018-06-04T12:41:58.045Z,3.40
2018-06-04T12:44:28.117Z,3.53
2018-06-04T12:46:58.145Z,3.60
2018-06-04T12:49:27.981Z,3.20
2018-06-04T12:51:57.799Z,3.10
2018-06-04T12:54:27.955Z,3.10
2018-06-04T12:56:57.943Z,3.27
2018-06-04T12:59:27.989Z,3.67
2018-06-04T13:01:57.899Z,2.83
2018-06-04T13:04:28.045Z,3.17
2018-06-04T13:06:58.314Z,2.97
2018-06-04T13:09:28.193Z,3.20
2018-06-04T13:11:58.006Z,3.10
2018-06-04T13:14:27.930Z,3.40
2018-06-04T13:16:58.019Z,3.10
2018-06-04T13:19:28.092Z,3.33
2018-06-04T13:22:04.133Z,3.00
2018-06-04T13:24:34.056Z,2.93
2018-06-04T13:27:04.295Z,3.27
2018-06-04T13:29:34.197Z,3.20
2018-06-04T13:32:04.138Z,2.97
2018-06-04T13:34:34.033Z,3.17
2018-06-04T13:37:03.961Z,3.10
2018-06-04T13:39:34.787Z,3.00
2018-06-04T13:42:05.554Z,3.20
2018-06-04T13:44:36.383Z,3.30
2018-06-04T13:47:06.285Z,3.07
2018-06-04T13:49:36.458Z,3.00
2018-06-04T13:52:07.353Z,2.77
2018-06-04T13:54:38.075Z,3.10
2018-06-04T13:57:07.958Z,3.13
2018-06-04T13:59:37.950Z,2.70
2018-06-04T14:02:08.142Z,3.07
2018-06-04T14:04:38.422Z,2.93
2018-06-04T14:07:08.325Z,3.00
2018-06-04T14:09:38.782Z,2.90
2018-06-04T14:12:09.365Z,3.43
2018-06-04T14:14:39.273Z,2.90
2018-06-04T14:17:09.206Z,2.60
2018-06-04T14:19:39.832Z,2.80
2018-06-04T14:22:09.946Z,2.70
2018-06-04T14:24:39.955Z,2.43
2018-06-04T14:27:10.294Z,3.00
2018-06-04T14:29:40.280Z,2.70
2018-06-04T14:32:10.474Z,2.97
2018-06-04T14:34:40.573Z,2.77
2018-06-04T14:37:10.400Z,2.73
2018-06-04T14:39:38.980Z,2.80
2018-06-04T14:42:09.041Z,2.67
2018-06-04T14:44:39.227Z,2.72
2018-06-04T14:47:09.301Z,2.70
2018-06-04T14:49:40.143Z,3.00
2018-06-04T14:52:10.753Z,2.60
2018-06-04T14:54:41.430Z,2.77
2018-06-04T14:57:11.682Z,2.98
2018-06-04T14:59:42.499Z,3.00
2018-06-04T15:02:12.590Z,2.70
2018-06-04T15:04:42.657Z,3.12
2018-06-04T15:07:14.245Z,3.00
2018-06-04T15:09:44.265Z,2.50
2018-06-04T15:12:14.378Z,2.83
2018-06-04T15:14:44.571Z,2.80
2018-06-04T15:17:15.460Z,3.00
2018-06-04T15:19:45.473Z,3.17
2018-06-04T15:22:15.840Z,3.10
2018-06-04T15:24:45.806Z,2.97
2018-06-04T15:27:16.495Z,3.17
2018-06-04T15:29:47.025Z,3.10
2018-06-04T15:32:21.777Z,2.97
2018-06-04T15:34:51.702Z,3.07
2018-06-04T15:37:22.053Z,3.20
2018-06-04T15:39:51.900Z,2.97
2018-06-04T15:42:21.601Z,2.97
2018-06-04T15:44:51.419Z,3.25
2018-06-04T15:47:21.118Z,2.77
2018-06-04T15:49:50.879Z,3.20
2018-06-04T15:52:21.061Z,3.00
2018-06-04T15:54:50.894Z,3.17
2018-06-04T15:57:20.441Z,2.97
2018-06-04T15:59:51.289Z,3.00
2018-06-04T16:02:22.809Z,3.10
2018-06-04T16:04:53.321Z,3.08
2018-06-04T16:07:24.428Z,2.68
2018-06-04T16:09:55.205Z,3.25
2018-06-04T16:12:26.442Z,3.22
2018-06-04T16:14:57.179Z,3.02
2018-06-04T16:17:28.402Z,3.14
2018-06-04T16:19:58.138Z,3.10
2018-06-04T16:22:29.329Z,3.02
2018-06-04T16:25:00.538Z,3.08
2018-06-04T16:27:31.070Z,3.33
2018-06-04T16:30:02.401Z,3.00
2018-06-04T16:32:33.358Z,3.20
2018-06-04T16:35:04.194Z,3.00
2018-06-04T16:37:35.565Z,3.00
2018-06-04T16:40:06.233Z,2.90
2018-06-04T16:42:37.453Z,3.10
2018-06-04T16:45:08.224Z,3.30
2018-06-04T16:47:39.518Z,2.90
2018-06-04T16:50:10.171Z,3.37
2018-06-04T16:52:41.105Z,3.22
2018-06-04T16:55:13.047Z,3.30
2018-06-04T16:57:43.348Z,3.33
2018-06-04T17:00:13.523Z,3.40
2018-06-04T17:02:44.865Z,3.30
2018-06-04T17:05:15.297Z,3.30
2018-06-04T17:07:46.984Z,3.46
2018-06-04T17:10:17.393Z,3.65
2018-06-04T17:12:47.043Z,3.25
2018-06-04T17:15:18.425Z,3.50
2018-06-04T17:17:49.097Z,3.25
2018-06-04T17:20:20.682Z,3.20
2018-06-04T17:22:51.109Z,3.47
2018-06-04T17:25:22.480Z,3.60
2018-06-04T17:27:53.154Z,3.67
2018-06-04T17:30:24.926Z,3.84
2018-06-04T17:32:55.628Z,3.50
2018-06-04T17:35:26.149Z,3.67
2018-06-04T17:37:57.987Z,3.58
2018-06-04T17:40:28.370Z,3.72
2018-06-04T17:42:59.419Z,4.08
2018-06-04T17:45:30.005Z,3.92
2018-06-04T17:48:01.000Z,4.05
2018-06-04T17:50:32.565Z,3.90
2018-06-04T17:53:03.034Z,3.42
2018-06-04T17:55:33.812Z,4.55
2018-06-04T17:58:05.873Z,5.80
2018-06-04T18:00:35.857Z,6.13
2018-06-04T18:03:06.919Z,6.17
2018-06-04T18:05:37.491Z,6.10
2018-06-04T18:08:08.725Z,6.62
2018-06-04T18:10:39.202Z,7.25
2018-06-04T18:13:10.530Z,6.76
2018-06-04T18:15:41.229Z,6.72
2018-06-04T18:18:12.489Z,6.32
2018-06-04T18:20:43.365Z,6.20
2018-06-04T18:23:16.625Z,6.00
2018-06-04T18:25:46.299Z,5.17
2018-06-04T18:28:16.528Z,4.52
2018-06-04T18:30:47.191Z,3.92
2018-06-04T18:33:17.622Z,4.08
2018-06-04T18:35:48.155Z,3.90
2018-06-04T18:38:19.393Z,3.78
2018-06-04T18:40:50.406Z,3.92
2018-06-04T18:43:20.113Z,4.05
2018-06-04T18:45:51.477Z,3.64
2018-06-04T18:48:22.244Z,4.30
2018-06-04T18:50:53.551Z,4.32
2018-06-04T18:53:24.707Z,4.30
2018-06-04T18:55:55.225Z,3.90
2018-06-04T18:58:26.513Z,3.82
2018-06-04T19:00:57.259Z,3.80
2018-06-04T19:03:28.521Z,4.10
2018-06-04T19:05:59.194Z,4.20
2018-06-04T19:08:31.029Z,3.94
2018-06-04T19:11:02.382Z,4.64
2018-06-04T19:13:32.927Z,3.87
2018-06-04T19:16:04.212Z,3.92
2018-06-04T19:18:34.554Z,4.40
2018-06-04T19:21:05.297Z,4.03
2018-06-04T19:23:37.005Z,4.32
2018-06-04T19:26:07.353Z,4.17
2018-06-04T19:31:16.401Z,4.40
2018-06-04T19:33:46.024Z,4.83
2018-06-04T19:36:16.072Z,5.40
2018-06-04T19:38:45.724Z,5.27
2018-06-04T19:41:15.356Z,5.40
2018-06-04T19:43:45.134Z,5.87
2018-06-04T19:46:15.445Z,5.85
2018-06-04T19:48:46.454Z,5.65
2018-06-04T19:51:17.127Z,5.62
2018-06-04T19:53:48.655Z,6.76
2018-06-04T19:56:19.303Z,6.50
2018-06-04T19:58:50.541Z,6.34
2018-06-04T20:01:21.721Z,6.00
2018-06-04T20:03:52.107Z,6.30
2018-06-04T20:06:23.646Z,6.04
2018-06-04T20:08:54.104Z,6.53
2018-06-04T20:11:25.325Z,6.42
2018-06-04T20:13:56.452Z,6.64
2018-06-04T20:16:27.033Z,6.37
2018-06-04T20:18:58.258Z,6.78
2018-06-04T20:21:28.384Z,6.42
2018-06-04T20:23:59.472Z,6.88
2018-06-04T20:26:30.141Z,6.45
2018-06-04T20:29:01.416Z,6.96
2018-06-04T20:31:32.726Z,6.28
2018-06-04T20:34:03.101Z,5.92
2018-06-04T20:36:34.383Z,6.40
2018-06-04T20:39:07.279Z,6.25
2018-06-04T20:41:37.081Z,6.53
2018-06-04T20:44:07.648Z,6.37
2018-06-04T20:46:38.073Z,6.50
2018-06-04T20:49:09.325Z,6.64
2018-06-04T20:51:39.123Z,6.50
2018-06-04T20:54:10.582Z,6.44
2018-06-04T20:56:40.990Z,6.50
2018-06-04T20:59:12.238Z,6.92
2018-06-04T21:01:43.486Z,7.50
2018-06-04T21:04:13.114Z,6.60
2018-06-04T21:06:44.295Z,6.44
2018-06-04T21:09:15.442Z,6.66
2018-06-04T21:11:46.047Z,6.28
2018-06-04T21:14:17.309Z,6.66
2018-06-04T21:16:48.325Z,6.84
2018-06-04T21:19:19.455Z,7.10
2018-06-04T21:21:50.041Z,6.85
2018-06-04T21:24:21.413Z,7.56
2018-06-04T21:26:51.021Z,7.25
2018-06-04T21:29:22.265Z,6.94
2018-06-04T21:31:52.550Z,7.20
2018-06-04T21:34:23.144Z,7.83
2018-06-04T21:36:54.388Z,7.28
2018-06-04T21:39:25.413Z,7.54
2018-06-04T21:41:56.022Z,7.03
2018-06-04T21:44:27.282Z,7.34
2018-06-04T21:46:58.333Z,7.60
2018-06-04T21:49:29.587Z,8.04
2018-06-04T21:52:00.086Z,8.70
2018-06-04T21:54:31.424Z,8.12
2018-06-04T21:57:02.032Z,8.53
2018-06-04T21:59:33.381Z,8.42
2018-06-04T22:02:04.501Z,8.20
2018-06-04T22:04:35.122Z,8.48
2018-06-04T22:07:06.450Z,8.40
2018-06-04T22:09:37.108Z,8.38
2018-06-04T22:12:08.347Z,8.76
2018-06-04T22:14:39.500Z,8.16
2018-06-04T22:17:10.166Z,8.28
2018-06-04T22:19:41.757Z,7.60
2018-06-04T22:22:12.025Z,8.40
2018-06-04T22:24:43.307Z,7.90
2018-06-04T22:27:14.465Z,8.14
2018-06-04T22:29:45.141Z,7.58
2018-06-04T22:32:16.713Z,8.04
2018-06-04T22:34:47.138Z,7.75
2018-06-04T22:37:18.330Z,8.48
2018-06-04T22:39:49.366Z,7.76
2018-06-04T22:42:20.046Z,8.35
2018-06-04T22:44:51.295Z,7.68
2018-06-04T22:47:21.363Z,7.40
2018-06-04T22:49:52.546Z,7.22
2018-06-04T22:52:23.024Z,7.97
2018-06-04T22:54:54.365Z,8.16
2018-06-04T22:57:25.036Z,8.43
2018-06-04T22:59:56.294Z,8.60
2018-06-04T23:02:27.430Z,8.36
2018-06-04T23:04:58.138Z,8.53
2018-06-04T23:07:29.358Z,8.50
2018-06-04T23:10:00.066Z,7.90
2018-06-04T23:12:31.259Z,8.20
2018-06-04T23:15:02.430Z,7.84
2018-06-04T23:17:33.109Z,8.73
2018-06-04T23:20:04.478Z,9.08
2018-06-04T23:22:35.200Z,8.95
2018-06-04T23:25:06.450Z,9.14
2018-06-04T23:27:36.133Z,8.85
2018-06-04T23:30:07.414Z,8.18
2018-06-04T23:32:38.381Z,8.48
2018-06-04T23:35:09.420Z,9.02
2018-06-04T23:37:40.060Z,8.13
2018-06-04T23:40:11.302Z,7.94
2018-06-04T23:42:42.392Z,8.38
2018-06-04T23:45:13.038Z,8.23
2018-06-04T23:47:44.278Z,8.70
2018-06-04T23:50:15.685Z,8.44
2018-06-04T23:52:46.298Z,8.75
2018-06-04T23:55:17.906Z,8.60
2018-06-04T23:57:48.334Z,8.30
